ADDS METAR Data INFO
IDs: Format: Raw Decoded Include TAF

Data at: 0113 UTC 24 Jun 2018

KADH 240055Z AUTO 12004KT 10SM SCT065 SCT085 29/23 A2978 RMK AO2 LTG DSNT SE
KADH 240035Z AUTO 12003KT 10SM SCT075 SCT085 29/23 A2978 RMK AO2
KADH 240015Z AUTO 15006KT 10SM SCT070 SCT080 SCT100 30/22 A2978 RMK AO2
KADH 232355Z AUTO 14007KT 10SM SCT070 SCT090 30/23 A2978 RMK AO2
KADH 232335Z AUTO 16005KT 10SM SCT038 SCT080 BKN090 31/22 A2978 RMK AO2
KADH 232315Z AUTO 15005KT 10SM SCT038 SCT048 SCT080 31/23 A2978 RMK AO2
KADH 232255Z AUTO 16007KT 10SM SCT036 SCT042 SCT048 31/23 A2978 RMK AO2
KADH 232235Z AUTO 17006KT 10SM SCT038 31/23 A2979 RMK AO2
KADH 232215Z AUTO 15006KT 10SM SCT040 31/23 A2980 RMK AO2
KADH 232155Z AUTO 19006KT 10SM CLR 32/23 A2980 RMK AO2
KADH 232135Z AUTO 16007KT 10SM SCT040 32/22 A2980 RMK AO2
KADH 232115Z AUTO 16004KT 10SM CLR 31/22 A2980 RMK AO2
KADH 232055Z AUTO 17006KT 10SM CLR 31/21 A2980 RMK AO2
KADH 232035Z AUTO 16007KT 10SM CLR 31/22 A2981 RMK AO2
KADH 232015Z AUTO 15008KT 10SM CLR 31/21 A2982 RMK AO2
KADH 231955Z AUTO 14008KT 10SM CLR 31/21 A2982 RMK AO2
KADH 231935Z AUTO 17004KT 10SM CLR 31/20 A2983 RMK AO2
KADH 231915Z AUTO 18008KT 10SM CLR 31/20 A2983 RMK AO2
KADH 231855Z AUTO 17011KT 10SM CLR 31/20 A2984 RMK AO2
KADH 231835Z AUTO 17010KT 10SM CLR 30/20 A2984 RMK AO2
KADH 231815Z AUTO 16009KT 10SM CLR 29/20 A2984 RMK AO2
KADH 231755Z AUTO 14004KT 10SM SCT110 28/20 A2985 RMK AO2
KADH 231735Z AUTO 16005KT 10SM SCT110 27/20 A2985 RMK AO2
KADH 231715Z AUTO 18006KT 10SM SCT110 26/20 A2986 RMK AO2 LTG DSNT NE
KADH 231655Z AUTO 15009KT 10SM SCT110 25/19 A2986 RMK AO2
KADH 231635Z AUTO 17011KT 10SM SCT110 26/19 A2985 RMK AO2
KADH 231615Z AUTO 18007KT 10SM SCT110 25/20 A2986 RMK AO2
KADH 231555Z AUTO 16009KT 10SM SCT110 23/18 A2985 RMK AO2
KADH 231535Z AUTO 17011KT 10SM BKN110 23/19 A2986 RMK AO2
KADH 231515Z AUTO 17008KT 10SM SCT120 21/19 A2986 RMK AO2 LTG DSNT SW
KADH 231455Z AUTO 16009KT 10SM SCT120 20/19 A2987 RMK AO2 LTG DSNT S AND SW
KADH 231435Z AUTO 17005KT 10SM SCT120 20/18 A2988 RMK AO2 LTG DSNT SW
KADH 231415Z AUTO 15005KT 10SM CLR 20/18 A2988 RMK AO2 LTG DSNT E THRU SW
KADH 231355Z AUTO 16005KT 10SM SCT120 20/18 A2988 RMK AO2 LTG DSNT SE AND S
KADH 231335Z AUTO 20011KT 10SM -VCTSRA SCT060 SCT075 SCT110 19/19 A2989 RMK AO2 LTG DSNT SE THRU SW
KADH 231315Z AUTO 18009KT 10SM VCTS BKN120 20/19 A2987 RMK AO2 LTG DSNT E THRU SW
KADH 231255Z AUTO 15010KT 10SM -VCTSRA SCT037 SCT065 BKN110 19/19 A2985 RMK AO2 LTG DSNT ALQS P0025
KADH 231235Z AUTO 16004KT 10SM -TSRA SCT014 BKN060 OVC110 19/19 A2987 RMK AO2 LTG DSNT ALQS P0024
KADH 231210Z AUTO 22003KT 10SM +TSRA SCT030 SCT041 OVC100 20/19 A2987 RMK AO2 LTG DSNT ALQS P0003
KADH 231155Z AUTO 16005KT 10SM BKN110 20/20 A2983 RMK AO2 LTG DSNT NE THRU SW P0002
KADH 231135Z AUTO 25003KT 10SM -VCTSRA SCT032 SCT050 SCT065 20/20 A2985 RMK AO2 LTG DSNT ALQS P0002
KADH 231115Z AUTO 13008KT 2 1/2SM +TSRA SCT037 SCT050 OVC100 20/20 A2981 RMK AO2 LTG DSNT ALQS P0001
KADH 231055Z AUTO 00000KT 10SM TS BKN100 20/20 A2984 RMK AO2 LTG DSNT ALQS P0006
KADH 231035Z AUTO 00000KT 10SM -TSRA SCT026 SCT045 BKN100 20/20 A2984 RMK AO2 LTG DSNT ALQS P0006
KADH 231015Z AUTO 00000KT 7SM +TSRA SCT033 BKN090 OVC110 20/20 A2981 RMK AO2 LTG DSNT ALQS P0002
KADH 230955Z AUTO 14006KT 10SM -RA SCT090 BKN120 20/20 A2979 RMK AO2 LTG DSNT W AND NW
KADH 230935Z AUTO 13006KT 10SM SCT090 BKN120 20/20 A2980 RMK AO2 LTG DSNT NE
KADH 230915Z AUTO 13006KT 10SM BKN100 BKN110 20/20 A2982 RMK AO2
KADH 230855Z AUTO 13004KT 10SM BKN100 20/20 A2983 RMK AO2 LTG DSNT E
KADH 230835Z AUTO 10006KT 10SM BKN100 20/20 A2982 RMK AO2 LTG DSNT N THRU SE
KADH 230815Z AUTO 08007KT 10SM -RA SCT012 SCT021 BKN110 20/20 A2984 RMK AO2
KADH 230755Z AUTO 07003KT 5SM -RA SCT012 SCT022 BKN100 20/20 A2986 RMK AO2 LTG DSNT NW THRU E P0009
KADH 230735Z AUTO 03004KT 10SM -RA SCT100 SCT120 20/20 A2990 RMK AO2 LTG DSNT ALQS P0001
KADH 230715Z AUTO 02010G14KT 10SM -TSRA SCT032 SCT046 BKN095 20/20 A2989 RMK AO2 LTG DSNT ALQS P0001
KADH 230655Z AUTO 04011G22KT 7SM TSRA SCT012 BKN032 OVC100 20/20 A2988 RMK AO2 LTG DSNT ALQS P0029
KADH 230635Z AUTO 36011G20KT 7SM +TSRA SCT006 OVC013 20/20 A2993 RMK AO2 LTG DSNT ALQS P0021
KADH 230615Z AUTO 01011G19KT 4SM +TSRA SCT005 BKN008 OVC013 20/20 A2992 RMK AO2 LTG DSNT ALQS P0015
KADH 230555Z AUTO 35013G23KT 1SM -VCTSRA BKN003 OVC010 20/20 A2992 RMK AO2 VIS 1/2V5 LTG DSNT ALQS P0071
KADH 230540Z AUTO 33022G33KT 5SM +RA SCT020 SCT029 BKN041 22/18 A2988 RMK AO2 LTG DSNT ALQS P0003
KADH 230515Z AUTO 00000KT 10SM CLR 23/18 A2977 RMK AO2 LTG DSNT N AND NW
KADH 230455Z AUTO 10004KT 10SM CLR 22/18 A2976 RMK AO2 LTG DSNT N
KADH 230435Z AUTO 10004KT 10SM CLR 22/18 A2977 RMK AO2
KADH 230415Z AUTO 11005KT 10SM CLR 23/18 A2977 RMK AO2
KADH 230355Z AUTO 10006KT 10SM CLR 22/18 A2977 RMK AO2
KADH 230335Z AUTO 09005KT 10SM CLR 22/18 A2978 RMK AO2
KADH 230315Z AUTO 10004KT 10SM CLR 22/18 A2978 RMK AO2
KADH 230255Z AUTO 09004KT 10SM CLR 22/18 A2977 RMK AO2
KADH 230235Z AUTO 09004KT 10SM CLR 23/18 A2976 RMK AO2
KADH 230215Z AUTO 06003KT 10SM CLR 24/18 A2976 RMK AO2
KADH 230155Z AUTO 08003KT 10SM CLR 25/18 A2975 RMK AO2
KADH 230135Z AUTO 10003KT 10SM CLR 25/18 A2973 RMK AO2
KADH 230115Z AUTO 10003KT 10SM CLR 26/18 A2974 RMK AO2
KADH 230055Z AUTO 11003KT 10SM CLR 27/18 A2973 RMK AO2
KADH 230035Z AUTO 10005KT 10SM CLR 28/18 A2974 RMK AO2
KADH 230015Z AUTO 07004KT 10SM CLR 28/18 A2975 RMK AO2
KADH 222355Z AUTO 11006KT 10SM CLR 29/18 A2975 RMK AO2
KADH 222335Z AUTO 11004KT 10SM CLR 29/18 A2975 RMK AO2
KADH 222315Z AUTO 10006KT 10SM CLR 29/18 A2976 RMK AO2
KADH 222255Z AUTO 09005KT 10SM CLR 29/18 A2976 RMK AO2
KADH 222235Z AUTO 00000KT 10SM CLR 29/18 A2978 RMK AO2
KADH 222215Z AUTO 06003KT 10SM CLR 30/17 A2979 RMK AO2
KADH 222155Z AUTO 00000KT 10SM CLR 29/18 A2980 RMK AO2
KADH 222135Z AUTO 00000KT 10SM CLR 29/17 A2981 RMK AO2
KADH 222115Z AUTO 01006KT 10SM CLR 30/18 A2984 RMK AO2
KADH 222055Z AUTO 02003KT 10SM CLR 29/17 A2984 RMK AO2
KADH 222035Z AUTO 21005KT 10SM CLR 28/18 A2981 RMK AO2
KADH 222015Z AUTO 10003KT 10SM CLR 27/17 A2983 RMK AO2
KADH 221955Z AUTO 35003KT 10SM CLR 27/18 A2986 RMK AO2
KADH 221935Z AUTO 00000KT 10SM CLR 26/18 A2985 RMK AO2
KADH 221915Z AUTO 00000KT 10SM CLR 26/17 A2987 RMK AO2
KADH 221855Z AUTO 22003KT 10SM CLR 26/17 A2987 RMK AO2
KADH 221835Z AUTO 00000KT 10SM CLR 26/18 A2990 RMK AO2
KADH 221815Z AUTO 24004KT 10SM CLR 25/18 A2990 RMK AO2
KADH 221755Z AUTO 00000KT 10SM CLR 24/18 A2991 RMK AO2
KADH 221735Z AUTO 23003KT 10SM CLR 23/19 A2991 RMK AO2
KADH 221715Z AUTO 25003KT 10SM CLR 23/19 A2992 RMK AO2
KADH 221655Z AUTO 26003KT 10SM CLR 23/18 A2992 RMK AO2
KADH 221635Z AUTO 00000KT 10SM CLR 23/18 A2992 RMK AO2
KADH 221615Z AUTO 36004KT 10SM CLR 22/18 A2991 RMK AO2
KADH 221555Z AUTO 00000KT 10SM CLR 21/19 A2992 RMK AO2
KADH 221535Z AUTO 25004KT 10SM CLR 21/20 A2993 RMK AO2
KADH 221515Z AUTO 23003KT 10SM CLR 20/20 A2992 RMK AO2 LTG DSNT S
KADH 221455Z AUTO 26003KT 10SM CLR 21/19 A2992 RMK AO2 LTG DSNT S
KADH 221435Z AUTO 00000KT 10SM CLR 20/19 A2992 RMK AO2 LTG DSNT S
KADH 221410Z AUTO 00000KT 10SM SCT070 20/19 A2992 RMK AO2 LTG DSNT SE THRU SW
KADH 221355Z AUTO 00000KT 10SM TS SCT070 SCT080 20/19 A2992 RMK AO2 LTG DSNT SE THRU SW
KADH 221335Z AUTO 27003KT 10SM -VCTSRA BKN080 BKN090 20/19 A2993 RMK AO2 LTG DSNT E THRU W
KADH 221315Z AUTO 00000KT 10SM SCT014 SCT050 SCT080 20/18 A2991 RMK AO2 LTG DSNT SE THRU NW